sensor_id;sensor_type;location;lat;lon;timestamp;P1;durP1;ratioP1;P2;durP2;ratioP2
5929;SDS011;2990;48.746;9.236;2023-06-10T00:01:32;904.90;;;839.03;;
5929;SDS011;2990;48.746;9.236;2023-06-10T00:03:59;948.42;;;878.17;;
5929;SDS011;2990;48.746;9.236;2023-06-10T00:06:24;958.60;;;887.70;;
5929;SDS011;2990;48.746;9.236;2023-06-10T00:08:50;904.90;;;839.00;;
5929;SDS011;2990;48.746;9.236;2023-06-10T00:11:16;901.40;;;835.90;;
5929;SDS011;2990;48.746;9.236;2023-06-10T00:13:42;897.30;;;831.65;;
5929;SDS011;2990;48.746;9.236;2023-06-10T00:16:07;900.15;;;834.70;;
5929;SDS011;2990;48.746;9.236;2023-06-10T00:18:33;937.15;;;867.75;;
5929;SDS011;2990;48.746;9.236;2023-06-10T00:21:01;948.80;;;879.00;;
5929;SDS011;2990;48.746;9.236;2023-06-10T00:23:29;948.55;;;878.38;;
5929;SDS011;2990;48.746;9.236;2023-06-10T00:26:02;924.42;;;856.47;;
5929;SDS011;2990;48.746;9.236;2023-06-10T00:28:28;934.58;;;865.97;;
5929;SDS011;2990;48.746;9.236;2023-06-10T00:30:53;906.90;;;840.55;;
5929;SDS011;2990;48.746;9.236;2023-06-10T00:33:19;946.83;;;877.33;;
5929;SDS011;2990;48.746;9.236;2023-06-10T00:35:45;933.00;;;864.17;;
5929;SDS011;2990;48.746;9.236;2023-06-10T00:38:10;911.70;;;846.15;;
5929;SDS011;2990;48.746;9.236;2023-06-10T00:40:41;865.35;;;803.92;;
5929;SDS011;2990;48.746;9.236;2023-06-10T00:43:07;887.47;;;824.13;;
5929;SDS011;2990;48.746;9.236;2023-06-10T00:45:32;919.88;;;854.42;;
5929;SDS011;2990;48.746;9.236;2023-06-10T00:47:58;861.55;;;800.50;;
5929;SDS011;2990;48.746;9.236;2023-06-10T00:50:25;897.05;;;833.80;;
5929;SDS011;2990;48.746;9.236;2023-06-10T00:52:50;885.10;;;821.85;;
5929;SDS011;2990;48.746;9.236;2023-06-10T00:55:17;814.13;;;757.55;;
5929;SDS011;2990;48.746;9.236;2023-06-10T00:57:44;838.03;;;779.58;;
5929;SDS011;2990;48.746;9.236;2023-06-10T01:00:11;826.00;;;768.60;;
5929;SDS011;2990;48.746;9.236;2023-06-10T01:02:37;856.08;;;796.47;;
5929;SDS011;2990;48.746;9.236;2023-06-10T01:05:03;847.42;;;788.70;;
5929;SDS011;2990;48.746;9.236;2023-06-10T01:10:31;794.80;;;740.28;;
5929;SDS011;2990;48.746;9.236;2023-06-10T01:13:07;817.55;;;761.38;;
5929;SDS011;2990;48.746;9.236;2023-06-10T01:15:36;810.40;;;755.05;;
5929;SDS011;2990;48.746;9.236;2023-06-10T01:18:06;824.80;;;768.30;;
5929;SDS011;2990;48.746;9.236;2023-06-10T01:20:34;811.80;;;756.42;;
5929;SDS011;2990;48.746;9.236;2023-06-10T01:23:04;805.28;;;750.47;;
5929;SDS011;2990;48.746;9.236;2023-06-10T01:25:30;765.95;;;714.25;;
5929;SDS011;2990;48.746;9.236;2023-06-10T01:28:10;813.67;;;757.95;;
5929;SDS011;2990;48.746;9.236;2023-06-10T01:30:55;801.03;;;747.10;;
5929;SDS011;2990;48.746;9.236;2023-06-10T01:33:29;757.45;;;706.40;;
5929;SDS011;2990;48.746;9.236;2023-06-10T01:35:59;791.60;;;737.97;;
5929;SDS011;2990;48.746;9.236;2023-06-10T01:38:27;754.88;;;704.05;;
5929;SDS011;2990;48.746;9.236;2023-06-10T01:40:56;744.53;;;694.60;;
5929;SDS011;2990;48.746;9.236;2023-06-10T01:43:22;731.47;;;682.42;;
5929;SDS011;2990;48.746;9.236;2023-06-10T01:45:48;755.50;;;704.13;;
5929;SDS011;2990;48.746;9.236;2023-06-10T01:48:13;741.47;;;692.03;;
5929;SDS011;2990;48.746;9.236;2023-06-10T01:50:39;779.90;;;727.20;;
5929;SDS011;2990;48.746;9.236;2023-06-10T01:53:05;768.95;;;717.08;;
5929;SDS011;2990;48.746;9.236;2023-06-10T01:55:30;784.70;;;731.25;;
5929;SDS011;2990;48.746;9.236;2023-06-10T01:57:56;778.05;;;725.30;;
5929;SDS011;2990;48.746;9.236;2023-06-10T02:00:22;741.53;;;691.30;;
5929;SDS011;2990;48.746;9.236;2023-06-10T02:02:47;772.30;;;720.03;;
5929;SDS011;2990;48.746;9.236;2023-06-10T02:05:13;748.30;;;697.45;;
5929;SDS011;2990;48.746;9.236;2023-06-10T02:07:38;746.05;;;695.95;;
5929;SDS011;2990;48.746;9.236;2023-06-10T02:10:05;725.58;;;677.17;;
5929;SDS011;2990;48.746;9.236;2023-06-10T02:12:31;737.90;;;688.47;;
5929;SDS011;2990;48.746;9.236;2023-06-10T02:14:56;744.03;;;694.20;;
5929;SDS011;2990;48.746;9.236;2023-06-10T02:17:22;721.83;;;673.17;;
5929;SDS011;2990;48.746;9.236;2023-06-10T02:19:48;730.22;;;681.45;;
5929;SDS011;2990;48.746;9.236;2023-06-10T02:22:19;663.28;;;619.15;;
5929;SDS011;2990;48.746;9.236;2023-06-10T02:24:48;736.80;;;687.65;;
5929;SDS011;2990;48.746;9.236;2023-06-10T02:27:15;733.25;;;684.17;;
5929;SDS011;2990;48.746;9.236;2023-06-10T02:29:41;716.53;;;668.72;;
5929;SDS011;2990;48.746;9.236;2023-06-10T02:32:07;692.53;;;646.50;;
5929;SDS011;2990;48.746;9.236;2023-06-10T02:34:33;697.28;;;651.13;;
5929;SDS011;2990;48.746;9.236;2023-06-10T02:36:58;721.45;;;673.38;;
5929;SDS011;2990;48.746;9.236;2023-06-10T02:39:24;709.10;;;661.85;;
5929;SDS011;2990;48.746;9.236;2023-06-10T02:41:50;727.78;;;679.25;;
5929;SDS011;2990;48.746;9.236;2023-06-10T02:44:16;728.88;;;680.15;;
5929;SDS011;2990;48.746;9.236;2023-06-10T02:46:42;730.28;;;681.38;;
5929;SDS011;2990;48.746;9.236;2023-06-10T02:49:08;728.40;;;679.63;;
5929;SDS011;2990;48.746;9.236;2023-06-10T02:51:33;755.13;;;704.70;;
5929;SDS011;2990;48.746;9.236;2023-06-10T02:53:59;736.30;;;686.85;;
5929;SDS011;2990;48.746;9.236;2023-06-10T02:56:25;723.60;;;674.97;;
5929;SDS011;2990;48.746;9.236;2023-06-10T02:58:50;748.97;;;698.78;;
5929;SDS011;2990;48.746;9.236;2023-06-10T03:01:16;729.65;;;680.95;;
5929;SDS011;2990;48.746;9.236;2023-06-10T03:03:43;740.75;;;691.40;;
5929;SDS011;2990;48.746;9.236;2023-06-10T03:06:13;726.05;;;678.00;;
5929;SDS011;2990;48.746;9.236;2023-06-10T03:08:39;661.65;;;618.05;;
5929;SDS011;2990;48.746;9.236;2023-06-10T03:11:05;701.38;;;654.80;;
5929;SDS011;2990;48.746;9.236;2023-06-10T03:13:31;684.80;;;639.28;;
5929;SDS011;2990;48.746;9.236;2023-06-10T03:15:57;702.05;;;655.60;;
5929;SDS011;2990;48.746;9.236;2023-06-10T03:18:26;689.55;;;644.17;;
5929;SDS011;2990;48.746;9.236;2023-06-10T03:20:53;677.20;;;632.17;;
5929;SDS011;2990;48.746;9.236;2023-06-10T03:23:20;691.00;;;645.17;;
5929;SDS011;2990;48.746;9.236;2023-06-10T03:25:46;698.00;;;651.88;;
5929;SDS011;2990;48.746;9.236;2023-06-10T03:28:11;668.78;;;624.58;;
5929;SDS011;2990;48.746;9.236;2023-06-10T03:30:37;658.22;;;614.70;;
5929;SDS011;2990;48.746;9.236;2023-06-10T03:33:02;627.83;;;586.80;;
5929;SDS011;2990;48.746;9.236;2023-06-10T03:35:29;633.97;;;592.80;;
5929;SDS011;2990;48.746;9.236;2023-06-10T03:37:54;641.25;;;599.72;;
5929;SDS011;2990;48.746;9.236;2023-06-10T03:40:20;665.58;;;621.72;;
5929;SDS011;2990;48.746;9.236;2023-06-10T03:42:46;656.08;;;613.30;;
5929;SDS011;2990;48.746;9.236;2023-06-10T03:45:11;651.72;;;609.00;;
5929;SDS011;2990;48.746;9.236;2023-06-10T03:47:37;637.20;;;595.53;;
5929;SDS011;2990;48.746;9.236;2023-06-10T03:50:05;648.47;;;605.70;;
5929;SDS011;2990;48.746;9.236;2023-06-10T03:52:31;637.70;;;596.35;;
5929;SDS011;2990;48.746;9.236;2023-06-10T03:54:57;620.92;;;580.83;;
5929;SDS011;2990;48.746;9.236;2023-06-10T03:57:22;648.30;;;605.70;;
5929;SDS011;2990;48.746;9.236;2023-06-10T03:59:48;619.85;;;579.75;;
5929;SDS011;2990;48.746;9.236;2023-06-10T04:02:13;631.72;;;590.40;;
5929;SDS011;2990;48.746;9.236;2023-06-10T04:04:39;634.50;;;593.33;;
5929;SDS011;2990;48.746;9.236;2023-06-10T04:07:06;611.22;;;572.13;;
5929;SDS011;2990;48.746;9.236;2023-06-10T04:09:33;604.20;;;565.20;;
5929;SDS011;2990;48.746;9.236;2023-06-10T04:11:58;650.25;;;608.17;;
5929;SDS011;2990;48.746;9.236;2023-06-10T04:14:24;633.80;;;592.28;;
5929;SDS011;2990;48.746;9.236;2023-06-10T04:16:49;665.20;;;621.83;;
5929;SDS011;2990;48.746;9.236;2023-06-10T04:19:15;621.03;;;581.08;;
5929;SDS011;2990;48.746;9.236;2023-06-10T04:21:41;670.22;;;626.17;;
5929;SDS011;2990;48.746;9.236;2023-06-10T04:24:07;682.58;;;637.42;;
5929;SDS011;2990;48.746;9.236;2023-06-10T04:26:33;645.05;;;602.35;;
5929;SDS011;2990;48.746;9.236;2023-06-10T04:29:00;640.88;;;598.47;;
5929;SDS011;2990;48.746;9.236;2023-06-10T04:31:25;678.08;;;632.85;;
5929;SDS011;2990;48.746;9.236;2023-06-10T04:33:51;685.45;;;639.95;;
5929;SDS011;2990;48.746;9.236;2023-06-10T04:36:17;702.75;;;656.20;;
5929;SDS011;2990;48.746;9.236;2023-06-10T04:38:42;705.55;;;658.25;;
5929;SDS011;2990;48.746;9.236;2023-06-10T04:41:08;716.03;;;667.70;;
5929;SDS011;2990;48.746;9.236;2023-06-10T04:43:33;690.35;;;644.50;;
5929;SDS011;2990;48.746;9.236;2023-06-10T04:45:59;734.58;;;685.38;;
5929;SDS011;2990;48.746;9.236;2023-06-10T04:48:24;733.70;;;684.70;;
5929;SDS011;2990;48.746;9.236;2023-06-10T04:50:50;748.10;;;697.83;;
5929;SDS011;2990;48.746;9.236;2023-06-10T04:53:15;767.53;;;715.50;;
5929;SDS011;2990;48.746;9.236;2023-06-10T04:55:41;779.60;;;726.50;;
5929;SDS011;2990;48.746;9.236;2023-06-10T04:58:07;776.60;;;723.35;;
5929;SDS011;2990;48.746;9.236;2023-06-10T05:00:33;758.55;;;706.92;;
5929;SDS011;2990;48.746;9.236;2023-06-10T05:02:58;769.00;;;716.58;;
5929;SDS011;2990;48.746;9.236;2023-06-10T05:05:24;766.63;;;713.85;;
5929;SDS011;2990;48.746;9.236;2023-06-10T05:07:49;826.00;;;769.08;;
5929;SDS011;2990;48.746;9.236;2023-06-10T05:10:15;808.80;;;752.55;;
5929;SDS011;2990;48.746;9.236;2023-06-10T05:12:40;881.30;;;819.45;;
5929;SDS011;2990;48.746;9.236;2023-06-10T05:15:07;886.85;;;823.85;;
5929;SDS011;2990;48.746;9.236;2023-06-10T05:17:33;900.10;;;835.63;;
5929;SDS011;2990;48.746;9.236;2023-06-10T05:20:00;925.42;;;858.58;;
5929;SDS011;2990;48.746;9.236;2023-06-10T05:22:26;941.03;;;871.60;;
5929;SDS011;2990;48.746;9.236;2023-06-10T05:24:52;962.13;;;889.60;;
5929;SDS011;2990;48.746;9.236;2023-06-10T05:27:18;995.08;;;918.67;;
5929;SDS011;2990;48.746;9.236;2023-06-10T05:29:43;1002.95;;;924.97;;
5929;SDS011;2990;48.746;9.236;2023-06-10T05:32:10;1034.97;;;952.97;;
5929;SDS011;2990;48.746;9.236;2023-06-10T05:34:36;974.00;;;899.50;;
5929;SDS011;2990;48.746;9.236;2023-06-10T05:37:02;1020.40;;;939.30;;
5929;SDS011;2990;48.746;9.236;2023-06-10T05:39:28;1048.10;;;964.53;;
5929;SDS011;2990;48.746;9.236;2023-06-10T05:41:53;1027.93;;;945.42;;
5929;SDS011;2990;48.746;9.236;2023-06-10T05:44:19;1043.35;;;958.55;;
5929;SDS011;2990;48.746;9.236;2023-06-10T05:46:44;1056.47;;;970.50;;
5929;SDS011;2990;48.746;9.236;2023-06-10T05:49:10;1052.95;;;965.90;;
5929;SDS011;2990;48.746;9.236;2023-06-10T05:51:35;1072.50;;;984.05;;
5929;SDS011;2990;48.746;9.236;2023-06-10T05:54:02;1083.63;;;991.65;;
5929;SDS011;2990;48.746;9.236;2023-06-10T05:56:27;1084.78;;;992.10;;
5929;SDS011;2990;48.746;9.236;2023-06-10T05:58:53;1092.20;;;997.03;;
5929;SDS011;2990;48.746;9.236;2023-06-10T06:01:19;1068.32;;;978.78;;
5929;SDS011;2990;48.746;9.236;2023-06-10T06:03:44;1123.40;;;999.90;;
5929;SDS011;2990;48.746;9.236;2023-06-10T06:06:10;1141.50;;;999.90;;
5929;SDS011;2990;48.746;9.236;2023-06-10T06:08:35;1148.65;;;999.90;;
5929;SDS011;2990;48.746;9.236;2023-06-10T06:11:01;1066.18;;;978.38;;
5929;SDS011;2990;48.746;9.236;2023-06-10T06:13:26;1079.30;;;989.05;;
5929;SDS011;2990;48.746;9.236;2023-06-10T06:15:52;1212.07;;;999.90;;
5929;SDS011;2990;48.746;9.236;2023-06-10T06:18:17;1227.30;;;999.90;;
5929;SDS011;2990;48.746;9.236;2023-06-10T06:20:43;1230.15;;;999.90;;
5929;SDS011;2990;48.746;9.236;2023-06-10T06:23:09;1237.45;;;999.90;;
5929;SDS011;2990;48.746;9.236;2023-06-10T06:25:36;1164.10;;;999.90;;
5929;SDS011;2990;48.746;9.236;2023-06-10T06:28:03;1261.15;;;999.90;;
5929;SDS011;2990;48.746;9.236;2023-06-10T06:30:32;1256.03;;;999.90;;
5929;SDS011;2990;48.746;9.236;2023-06-10T06:32:58;1229.57;;;999.90;;
5929;SDS011;2990;48.746;9.236;2023-06-10T06:35:24;1272.10;;;999.90;;
5929;SDS011;2990;48.746;9.236;2023-06-10T06:37:49;1271.20;;;999.90;;
5929;SDS011;2990;48.746;9.236;2023-06-10T06:40:15;1249.90;;;999.90;;
5929;SDS011;2990;48.746;9.236;2023-06-10T06:42:41;1290.15;;;999.90;;
5929;SDS011;2990;48.746;9.236;2023-06-10T06:45:06;1274.90;;;999.90;;
5929;SDS011;2990;48.746;9.236;2023-06-10T06:47:32;1226.65;;;999.90;;
5929;SDS011;2990;48.746;9.236;2023-06-10T06:49:58;1262.45;;;999.90;;
5929;SDS011;2990;48.746;9.236;2023-06-10T06:52:23;1213.38;;;999.90;;
5929;SDS011;2990;48.746;9.236;2023-06-10T06:54:49;1253.38;;;999.90;;
5929;SDS011;2990;48.746;9.236;2023-06-10T06:57:14;1269.20;;;999.90;;
5929;SDS011;2990;48.746;9.236;2023-06-10T06:59:40;1255.93;;;999.90;;
5929;SDS011;2990;48.746;9.236;2023-06-10T07:02:06;1256.03;;;999.90;;
5929;SDS011;2990;48.746;9.236;2023-06-10T07:04:31;1306.93;;;999.90;;
5929;SDS011;2990;48.746;9.236;2023-06-10T07:06:57;1241.07;;;999.90;;
5929;SDS011;2990;48.746;9.236;2023-06-10T07:09:22;1300.90;;;999.90;;
5929;SDS011;2990;48.746;9.236;2023-06-10T07:11:48;1565.75;;;999.90;;
5929;SDS011;2990;48.746;9.236;2023-06-10T07:14:13;1742.57;;;999.90;;
5929;SDS011;2990;48.746;9.236;2023-06-10T07:16:39;1506.93;;;999.90;;
5929;SDS011;2990;48.746;9.236;2023-06-10T07:19:05;1500.38;;;999.90;;
5929;SDS011;2990;48.746;9.236;2023-06-10T07:21:30;1638.15;;;999.90;;
5929;SDS011;2990;48.746;9.236;2023-06-10T07:23:57;1673.68;;;999.90;;
5929;SDS011;2990;48.746;9.236;2023-06-10T07:26:23;1674.75;;;999.90;;
5929;SDS011;2990;48.746;9.236;2023-06-10T07:28:48;1390.70;;;999.90;;
5929;SDS011;2990;48.746;9.236;2023-06-10T07:31:14;1688.72;;;999.90;;
5929;SDS011;2990;48.746;9.236;2023-06-10T07:33:39;1725.63;;;999.90;;
5929;SDS011;2990;48.746;9.236;2023-06-10T07:36:05;1718.20;;;999.90;;
5929;SDS011;2990;48.746;9.236;2023-06-10T07:38:31;1651.47;;;999.90;;
5929;SDS011;2990;48.746;9.236;2023-06-10T07:40:57;1694.95;;;999.90;;
5929;SDS011;2990;48.746;9.236;2023-06-10T07:43:23;1501.22;;;999.90;;
5929;SDS011;2990;48.746;9.236;2023-06-10T07:45:49;1749.63;;;999.90;;
5929;SDS011;2990;48.746;9.236;2023-06-10T07:48:14;1834.57;;;999.90;;
5929;SDS011;2990;48.746;9.236;2023-06-10T07:50:40;1550.40;;;999.90;;
5929;SDS011;2990;48.746;9.236;2023-06-10T07:53:06;1593.00;;;999.90;;
5929;SDS011;2990;48.746;9.236;2023-06-10T07:55:31;1779.43;;;999.90;;
5929;SDS011;2990;48.746;9.236;2023-06-10T07:57:57;1535.18;;;999.90;;
5929;SDS011;2990;48.746;9.236;2023-06-10T08:00:23;1726.90;;;999.90;;
5929;SDS011;2990;48.746;9.236;2023-06-10T08:02:49;1820.28;;;999.90;;
5929;SDS011;2990;48.746;9.236;2023-06-10T08:05:15;1833.97;;;999.90;;
5929;SDS011;2990;48.746;9.236;2023-06-10T08:07:41;1803.40;;;999.90;;
5929;SDS011;2990;48.746;9.236;2023-06-10T08:10:06;1705.88;;;999.90;;
5929;SDS011;2990;48.746;9.236;2023-06-10T08:12:33;1766.75;;;999.90;;
5929;SDS011;2990;48.746;9.236;2023-06-10T08:14:59;1685.05;;;999.90;;
5929;SDS011;2990;48.746;9.236;2023-06-10T08:17:25;1806.13;;;999.90;;
5929;SDS011;2990;48.746;9.236;2023-06-10T08:19:50;1838.07;;;999.90;;
5929;SDS011;2990;48.746;9.236;2023-06-10T08:22:16;1831.90;;;999.90;;
5929;SDS011;2990;48.746;9.236;2023-06-10T08:24:42;1870.07;;;999.90;;
5929;SDS011;2990;48.746;9.236;2023-06-10T08:27:07;1735.00;;;999.90;;
5929;SDS011;2990;48.746;9.236;2023-06-10T08:29:33;1595.95;;;999.90;;
5929;SDS011;2990;48.746;9.236;2023-06-10T08:31:59;1843.32;;;999.90;;
5929;SDS011;2990;48.746;9.236;2023-06-10T08:34:25;1900.60;;;999.90;;
5929;SDS011;2990;48.746;9.236;2023-06-10T08:36:50;1873.50;;;999.90;;
5929;SDS011;2990;48.746;9.236;2023-06-10T08:39:18;1896.32;;;999.90;;
5929;SDS011;2990;48.746;9.236;2023-06-10T08:41:46;1910.40;;;999.90;;
5929;SDS011;2990;48.746;9.236;2023-06-10T08:44:29;1897.82;;;999.90;;
5929;SDS011;2990;48.746;9.236;2023-06-10T08:46:56;1662.65;;;999.90;;
5929;SDS011;2990;48.746;9.236;2023-06-10T08:49:26;1624.20;;;999.90;;
5929;SDS011;2990;48.746;9.236;2023-06-10T08:51:58;1794.75;;;999.90;;
5929;SDS011;2990;48.746;9.236;2023-06-10T08:54:26;1559.00;;;999.90;;
5929;SDS011;2990;48.746;9.236;2023-06-10T08:56:55;1784.65;;;999.90;;
5929;SDS011;2990;48.746;9.236;2023-06-10T08:59:24;1826.10;;;999.90;;
5929;SDS011;2990;48.746;9.236;2023-06-10T09:01:50;1583.15;;;999.90;;
5929;SDS011;2990;48.746;9.236;2023-06-10T09:04:17;1579.80;;;999.90;;
5929;SDS011;2990;48.746;9.236;2023-06-10T09:06:44;1687.82;;;999.90;;
5929;SDS011;2990;48.746;9.236;2023-06-10T09:09:10;1659.53;;;999.90;;
5929;SDS011;2990;48.746;9.236;2023-06-10T09:11:38;1569.95;;;999.90;;
5929;SDS011;2990;48.746;9.236;2023-06-10T09:14:05;1521.70;;;999.90;;
5929;SDS011;2990;48.746;9.236;2023-06-10T09:16:31;1427.70;;;999.90;;
5929;SDS011;2990;48.746;9.236;2023-06-10T09:18:56;1479.80;;;999.90;;
5929;SDS011;2990;48.746;9.236;2023-06-10T09:21:24;1552.28;;;999.90;;
5929;SDS011;2990;48.746;9.236;2023-06-10T09:23:50;1656.40;;;999.90;;
5929;SDS011;2990;48.746;9.236;2023-06-10T09:26:16;1745.40;;;999.90;;
5929;SDS011;2990;48.746;9.236;2023-06-10T09:28:43;1727.40;;;999.90;;
5929;SDS011;2990;48.746;9.236;2023-06-10T09:31:12;1713.30;;;999.90;;
5929;SDS011;2990;48.746;9.236;2023-06-10T09:33:39;1729.32;;;999.90;;
5929;SDS011;2990;48.746;9.236;2023-06-10T09:36:04;1724.40;;;999.90;;
5929;SDS011;2990;48.746;9.236;2023-06-10T09:38:31;1690.72;;;999.90;;
5929;SDS011;2990;48.746;9.236;2023-06-10T09:40:57;1519.50;;;999.90;;
5929;SDS011;2990;48.746;9.236;2023-06-10T09:43:23;1694.25;;;999.90;;
5929;SDS011;2990;48.746;9.236;2023-06-10T09:46:05;1618.90;;;999.90;;
5929;SDS011;2990;48.746;9.236;2023-06-10T09:48:34;1651.97;;;999.90;;
5929;SDS011;2990;48.746;9.236;2023-06-10T09:51:00;1651.22;;;999.90;;
5929;SDS011;2990;48.746;9.236;2023-06-10T09:53:26;1578.53;;;999.90;;
5929;SDS011;2990;48.746;9.236;2023-06-10T09:55:51;1549.30;;;999.90;;
5929;SDS011;2990;48.746;9.236;2023-06-10T09:58:17;1513.57;;;999.90;;
5929;SDS011;2990;48.746;9.236;2023-06-10T10:00:43;1406.13;;;999.90;;
5929;SDS011;2990;48.746;9.236;2023-06-10T10:03:08;1464.13;;;999.90;;
5929;SDS011;2990;48.746;9.236;2023-06-10T10:05:34;1590.50;;;999.90;;
5929;SDS011;2990;48.746;9.236;2023-06-10T10:08:00;1548.82;;;999.90;;
5929;SDS011;2990;48.746;9.236;2023-06-10T10:10:25;1522.38;;;999.90;;
5929;SDS011;2990;48.746;9.236;2023-06-10T10:12:53;1454.22;;;999.90;;
5929;SDS011;2990;48.746;9.236;2023-06-10T10:15:23;1411.90;;;999.90;;
5929;SDS011;2990;48.746;9.236;2023-06-10T10:17:52;1501.93;;;999.90;;
5929;SDS011;2990;48.746;9.236;2023-06-10T10:20:22;1443.20;;;999.90;;
5929;SDS011;2990;48.746;9.236;2023-06-10T10:22:52;1469.65;;;999.90;;
5929;SDS011;2990;48.746;9.236;2023-06-10T10:25:26;1431.10;;;999.90;;
5929;SDS011;2990;48.746;9.236;2023-06-10T10:30:34;1429.50;;;999.90;;
5929;SDS011;2990;48.746;9.236;2023-06-10T10:33:09;1315.75;;;999.90;;
5929;SDS011;2990;48.746;9.236;2023-06-10T10:35:41;1605.28;;;999.90;;
5929;SDS011;2990;48.746;9.236;2023-06-10T10:38:08;1619.55;;;999.90;;
5929;SDS011;2990;48.746;9.236;2023-06-10T10:40:34;1674.80;;;999.90;;
5929;SDS011;2990;48.746;9.236;2023-06-10T10:43:01;1666.97;;;999.90;;
5929;SDS011;2990;48.746;9.236;2023-06-10T10:45:28;1855.63;;;999.90;;
5929;SDS011;2990;48.746;9.236;2023-06-10T10:47:54;1916.70;;;999.90;;
5929;SDS011;2990;48.746;9.236;2023-06-10T10:50:21;1970.10;;;999.90;;
5929;SDS011;2990;48.746;9.236;2023-06-10T10:55:26;1973.22;;;999.90;;
5929;SDS011;2990;48.746;9.236;2023-06-10T11:00:51;1799.80;;;999.90;;
5929;SDS011;2990;48.746;9.236;2023-06-10T11:03:17;1953.78;;;999.90;;
5929;SDS011;2990;48.746;9.236;2023-06-10T11:05:43;1897.10;;;999.90;;
5929;SDS011;2990;48.746;9.236;2023-06-10T11:08:13;1941.00;;;999.90;;
5929;SDS011;2990;48.746;9.236;2023-06-10T11:10:40;1999.90;;;999.90;;
5929;SDS011;2990;48.746;9.236;2023-06-10T11:13:15;1999.90;;;999.90;;
5929;SDS011;2990;48.746;9.236;2023-06-10T11:15:44;1997.60;;;999.90;;
5929;SDS011;2990;48.746;9.236;2023-06-10T11:23:10;1950.43;;;999.90;;
5929;SDS011;2990;48.746;9.236;2023-06-10T11:25:38;1944.40;;;999.90;;
5929;SDS011;2990;48.746;9.236;2023-06-10T11:28:17;1993.22;;;999.90;;
5929;SDS011;2990;48.746;9.236;2023-06-10T11:30:43;1999.90;;;999.90;;
5929;SDS011;2990;48.746;9.236;2023-06-10T11:33:08;1999.90;;;999.90;;
5929;SDS011;2990;48.746;9.236;2023-06-10T11:35:34;1983.07;;;999.90;;
5929;SDS011;2990;48.746;9.236;2023-06-10T11:38:00;1941.95;;;999.90;;
5929;SDS011;2990;48.746;9.236;2023-06-10T11:40:26;1990.90;;;999.90;;
5929;SDS011;2990;48.746;9.236;2023-06-10T11:42:55;1999.00;;;999.90;;
5929;SDS011;2990;48.746;9.236;2023-06-10T11:45:21;1972.57;;;999.90;;
5929;SDS011;2990;48.746;9.236;2023-06-10T11:47:59;1883.50;;;999.90;;
5929;SDS011;2990;48.746;9.236;2023-06-10T11:50:31;1991.38;;;999.90;;
5929;SDS011;2990;48.746;9.236;2023-06-10T11:52:57;1881.60;;;999.90;;
5929;SDS011;2990;48.746;9.236;2023-06-10T11:55:24;1910.70;;;999.90;;
5929;SDS011;2990;48.746;9.236;2023-06-10T11:57:51;1862.65;;;999.90;;
5929;SDS011;2990;48.746;9.236;2023-06-10T12:00:22;1953.68;;;999.90;;
5929;SDS011;2990;48.746;9.236;2023-06-10T12:02:58;1967.85;;;999.90;;
5929;SDS011;2990;48.746;9.236;2023-06-10T12:05:24;1920.18;;;999.90;;
5929;SDS011;2990;48.746;9.236;2023-06-10T12:07:50;1901.70;;;999.90;;
5929;SDS011;2990;48.746;9.236;2023-06-10T12:10:38;1725.63;;;999.90;;
5929;SDS011;2990;48.746;9.236;2023-06-10T12:13:10;1874.95;;;999.90;;
5929;SDS011;2990;48.746;9.236;2023-06-10T12:15:37;1882.72;;;999.90;;
5929;SDS011;2990;48.746;9.236;2023-06-10T12:18:03;1909.88;;;999.90;;
5929;SDS011;2990;48.746;9.236;2023-06-10T12:20:29;1955.78;;;999.90;;
5929;SDS011;2990;48.746;9.236;2023-06-10T12:22:58;1833.47;;;999.90;;
5929;SDS011;2990;48.746;9.236;2023-06-10T12:25:25;1999.90;;;999.90;;
5929;SDS011;2990;48.746;9.236;2023-06-10T12:27:58;1958.78;;;999.90;;
5929;SDS011;2990;48.746;9.236;2023-06-10T12:30:25;1989.60;;;999.90;;
5929;SDS011;2990;48.746;9.236;2023-06-10T12:32:52;1999.90;;;999.90;;
5929;SDS011;2990;48.746;9.236;2023-06-10T12:35:22;1981.88;;;999.90;;
5929;SDS011;2990;48.746;9.236;2023-06-10T12:37:58;1832.45;;;999.90;;
5929;SDS011;2990;48.746;9.236;2023-06-10T12:40:26;1897.75;;;999.90;;
5929;SDS011;2990;48.746;9.236;2023-06-10T12:42:59;1999.45;;;999.90;;
5929;SDS011;2990;48.746;9.236;2023-06-10T12:45:26;1993.97;;;999.90;;
5929;SDS011;2990;48.746;9.236;2023-06-10T12:48:06;1999.90;;;999.90;;
5929;SDS011;2990;48.746;9.236;2023-06-10T12:50:36;1999.90;;;999.90;;
5929;SDS011;2990;48.746;9.236;2023-06-10T12:53:06;1999.90;;;999.90;;
5929;SDS011;2990;48.746;9.236;2023-06-10T12:55:32;1999.90;;;999.90;;
5929;SDS011;2990;48.746;9.236;2023-06-10T12:57:58;1999.90;;;999.90;;
5929;SDS011;2990;48.746;9.236;2023-06-10T13:00:25;1999.90;;;999.90;;
5929;SDS011;2990;48.746;9.236;2023-06-10T13:02:53;1999.90;;;999.90;;
5929;SDS011;2990;48.746;9.236;2023-06-10T13:05:19;1999.90;;;999.90;;
5929;SDS011;2990;48.746;9.236;2023-06-10T13:07:45;1999.90;;;999.90;;
5929;SDS011;2990;48.746;9.236;2023-06-10T13:10:12;1999.90;;;999.90;;
5929;SDS011;2990;48.746;9.236;2023-06-10T13:12:38;1999.90;;;999.90;;
5929;SDS011;2990;48.746;9.236;2023-06-10T13:15:04;1999.90;;;999.90;;
5929;SDS011;2990;48.746;9.236;2023-06-10T13:17:30;1999.90;;;999.90;;
5929;SDS011;2990;48.746;9.236;2023-06-10T13:19:56;1999.90;;;999.90;;
5929;SDS011;2990;48.746;9.236;2023-06-10T13:22:22;1966.55;;;999.90;;
5929;SDS011;2990;48.746;9.236;2023-06-10T13:24:49;1999.90;;;999.90;;
5929;SDS011;2990;48.746;9.236;2023-06-10T13:27:14;1999.90;;;999.90;;
5929;SDS011;2990;48.746;9.236;2023-06-10T13:29:40;1999.90;;;999.90;;
5929;SDS011;2990;48.746;9.236;2023-06-10T13:32:06;1999.90;;;999.90;;
5929;SDS011;2990;48.746;9.236;2023-06-10T13:34:32;1999.90;;;999.90;;
5929;SDS011;2990;48.746;9.236;2023-06-10T13:36:57;1999.90;;;999.90;;
5929;SDS011;2990;48.746;9.236;2023-06-10T13:39:23;1999.90;;;999.90;;
5929;SDS011;2990;48.746;9.236;2023-06-10T13:41:49;1999.90;;;999.90;;
5929;SDS011;2990;48.746;9.236;2023-06-10T13:44:14;1999.90;;;999.90;;
5929;SDS011;2990;48.746;9.236;2023-06-10T13:46:40;1999.90;;;999.90;;
5929;SDS011;2990;48.746;9.236;2023-06-10T13:49:05;1999.90;;;999.90;;
5929;SDS011;2990;48.746;9.236;2023-06-10T13:51:31;1999.90;;;999.90;;
5929;SDS011;2990;48.746;9.236;2023-06-10T13:53:57;1999.90;;;999.90;;
5929;SDS011;2990;48.746;9.236;2023-06-10T13:56:22;1999.90;;;999.90;;
5929;SDS011;2990;48.746;9.236;2023-06-10T13:58:48;1999.90;;;999.90;;
5929;SDS011;2990;48.746;9.236;2023-06-10T14:01:13;1999.90;;;999.90;;
5929;SDS011;2990;48.746;9.236;2023-06-10T14:03:39;1999.90;;;999.90;;
5929;SDS011;2990;48.746;9.236;2023-06-10T14:06:04;1999.90;;;999.90;;
5929;SDS011;2990;48.746;9.236;2023-06-10T14:08:30;1999.90;;;999.90;;
5929;SDS011;2990;48.746;9.236;2023-06-10T14:10:56;1999.90;;;999.90;;
5929;SDS011;2990;48.746;9.236;2023-06-10T14:13:21;1999.90;;;999.90;;
5929;SDS011;2990;48.746;9.236;2023-06-10T14:15:47;1999.90;;;999.90;;
5929;SDS011;2990;48.746;9.236;2023-06-10T14:18:12;1999.90;;;999.90;;
5929;SDS011;2990;48.746;9.236;2023-06-10T14:20:38;1999.90;;;999.90;;
5929;SDS011;2990;48.746;9.236;2023-06-10T14:23:03;1979.78;;;999.90;;
5929;SDS011;2990;48.746;9.236;2023-06-10T14:25:29;1911.75;;;999.90;;
5929;SDS011;2990;48.746;9.236;2023-06-10T14:27:55;1772.65;;;999.90;;